createdAt,value
2022-10-29T00:02:13.338Z,98609.03
2022-10-29T00:06:15.358Z,98611.84
2022-10-29T00:10:17.563Z,98609.59
2022-10-29T00:14:19.666Z,98617.94
2022-10-29T00:18:21.689Z,98617.31
2022-10-29T00:22:23.784Z,98621.25
2022-10-29T00:26:28.407Z,98625.22
2022-10-29T00:30:30.464Z,98611.41
2022-10-29T00:34:32.482Z,98615.56
2022-10-29T00:38:35.488Z,98604.50
2022-10-29T00:42:37.497Z,98599.53
2022-10-29T00:46:46.273Z,98594.25
2022-10-29T00:50:49.127Z,98610.34
2022-10-29T00:54:53.601Z,98619.97
2022-10-29T00:58:55.976Z,98621.53
2022-10-29T01:02:58.492Z,98614.56
2022-10-29T01:07:01.785Z,98614.72
2022-10-29T01:11:20.638Z,98620.19
2022-10-29T01:16:04.078Z,98619.69
2022-10-29T01:21:00.532Z,98613.34
2022-10-29T01:25:21.009Z,98598.81
2022-10-29T01:29:41.784Z,98592.41
2022-10-29T01:33:56.241Z,98594.13
2022-10-29T01:38:06.869Z,98594.78
2022-10-29T01:42:22.088Z,98602.53
2022-10-29T01:46:44.466Z,98599.31
2022-10-29T01:50:51.776Z,98595.03
2022-10-29T01:54:53.734Z,98596.97
2022-10-29T01:58:58.923Z,98601.06
2022-10-29T02:03:33.563Z,98586.31
2022-10-29T02:07:57.339Z,98583.47
2022-10-29T02:12:08.531Z,98573.97
2022-10-29T02:16:11.685Z,98580.84
2022-10-29T02:20:14.859Z,98586.78
2022-10-29T02:24:16.888Z,98590.94
2022-10-29T02:32:25.868Z,98596.25
2022-10-29T02:36:27.893Z,98590.47
2022-10-29T02:40:29.913Z,98586.78
2022-10-29T02:44:31.963Z,98577.03
2022-10-29T02:48:34.011Z,98570.06
2022-10-29T02:52:36.064Z,98577.81
2022-10-29T02:56:38.110Z,98583.63
2022-10-29T03:00:40.150Z,98572.06
2022-10-29T03:04:44.141Z,98571.00
2022-10-29T03:08:46.808Z,98572.31
2022-10-29T03:12:48.813Z,98560.94
2022-10-29T03:16:50.824Z,98566.22
2022-10-29T03:20:52.937Z,98570.13
2022-10-29T03:24:54.947Z,98579.13
2022-10-29T03:28:57.096Z,98575.78
2022-10-29T03:32:59.363Z,98573.00
2022-10-29T03:37:01.473Z,98572.88
2022-10-29T03:41:08.495Z,98571.09
2022-10-29T03:45:10.972Z,98573.09
2022-10-29T03:49:13.087Z,98568.47
2022-10-29T03:53:15.132Z,98562.94
2022-10-29T03:57:17.110Z,98560.31
2022-10-29T04:01:19.217Z,98559.56
2022-10-29T04:05:21.315Z,98570.75
2022-10-29T04:09:23.400Z,98565.22
2022-10-29T04:13:25.400Z,98568.09
2022-10-29T04:17:27.401Z,98574.88
2022-10-29T04:26:42.181Z,98568.63
2022-10-29T04:30:21.282Z,98571.59
2022-10-29T04:34:23.426Z,98564.00
2022-10-29T04:38:25.428Z,98546.34
2022-10-29T04:42:27.420Z,98531.41
2022-10-29T04:46:29.471Z,98543.50
2022-10-29T04:50:32.669Z,98543.75
2022-10-29T04:54:34.659Z,98552.88
2022-10-29T04:58:36.682Z,98550.53
2022-10-29T05:02:38.711Z,98556.19
2022-10-29T05:06:40.716Z,98549.59
2022-10-29T05:10:42.757Z,98554.41
2022-10-29T05:14:44.777Z,98555.13
2022-10-29T05:18:47.717Z,98554.03
2022-10-29T05:22:49.795Z,98553.88
2022-10-29T05:26:51.822Z,98557.56
2022-10-29T05:30:54.383Z,98555.13
2022-10-29T05:34:56.657Z,98541.13
2022-10-29T05:38:58.852Z,98541.94
2022-10-29T05:43:01.211Z,98535.84
2022-10-29T05:47:05.725Z,98529.78
2022-10-29T05:51:07.974Z,98538.34
2022-10-29T05:55:10.046Z,98540.31
2022-10-29T05:59:12.121Z,98534.66
2022-10-29T06:03:17.066Z,98540.00
2022-10-29T06:07:19.172Z,98541.16
2022-10-29T06:11:21.212Z,98533.91
2022-10-29T06:15:23.301Z,98532.59
2022-10-29T06:19:25.326Z,98526.28
2022-10-29T06:23:28.055Z,98529.16
2022-10-29T06:27:30.158Z,98528.00
2022-10-29T06:31:32.217Z,98537.16
2022-10-29T06:39:37.431Z,98524.50
2022-10-29T06:43:39.531Z,98528.50
2022-10-29T06:47:43.059Z,98533.47
2022-10-29T06:51:45.105Z,98544.00
2022-10-29T06:55:47.186Z,98536.44
2022-10-29T06:59:49.193Z,98529.00
2022-10-29T07:03:51.197Z,98525.84
2022-10-29T07:08:01.318Z,98523.75
2022-10-29T07:12:03.603Z,98524.22
2022-10-29T07:16:06.163Z,98521.97
2022-10-29T07:20:09.349Z,98523.28
2022-10-29T07:24:11.375Z,98519.28
2022-10-29T07:28:22.991Z,98521.63
2022-10-29T07:32:25.029Z,98520.19
2022-10-29T07:36:27.037Z,98526.56
2022-10-29T07:40:29.104Z,98530.09
2022-10-29T07:44:31.103Z,98532.78
2022-10-29T07:48:33.120Z,98536.06
2022-10-29T07:52:35.104Z,98527.06
2022-10-29T07:56:37.106Z,98525.88
2022-10-29T08:00:40.867Z,98530.63
2022-10-29T08:04:43.020Z,98522.91
2022-10-29T08:08:45.245Z,98518.59
2022-10-29T08:12:50.994Z,98526.59
2022-10-29T08:16:54.705Z,98526.84
2022-10-29T08:20:56.763Z,98515.78
2022-10-29T08:24:58.749Z,98519.78
2022-10-29T08:29:00.812Z,98516.97
2022-10-29T08:33:03.506Z,98508.56
2022-10-29T08:37:05.523Z,98503.34
2022-10-29T08:41:16.404Z,98511.78
2022-10-29T08:45:50.755Z,98504.69
2022-10-29T08:50:06.420Z,98514.44
2022-10-29T08:54:30.172Z,98523.13
2022-10-29T08:58:45.314Z,98507.81
2022-10-29T09:02:48.157Z,98514.53
2022-10-29T09:07:24.299Z,98519.63
2022-10-29T09:11:48.127Z,98524.66
2022-10-29T09:16:16.311Z,98515.88
2022-10-29T09:20:40.417Z,98518.91
2022-10-29T09:25:17.502Z,98523.44
2022-10-29T09:29:35.589Z,98528.25
2022-10-29T09:33:39.579Z,98525.91
2022-10-29T09:37:58.993Z,98518.28
2022-10-29T09:42:03.127Z,98514.31
2022-10-29T09:46:39.423Z,98518.16
2022-10-29T09:50:48.501Z,98520.09
2022-10-29T09:54:54.068Z,98507.41
2022-10-29T09:59:09.783Z,98507.41
2022-10-29T10:03:33.231Z,98509.34
2022-10-29T10:07:35.221Z,98516.03
2022-10-29T10:11:40.296Z,98509.22
2022-10-29T10:15:50.388Z,98501.59
2022-10-29T10:19:52.413Z,98496.88
2022-10-29T10:23:57.588Z,98503.00
2022-10-29T10:28:03.896Z,98497.00
2022-10-29T10:32:05.873Z,98496.75
2022-10-29T10:36:09.335Z,98489.50
2022-10-29T10:40:22.620Z,98492.25
2022-10-29T10:44:25.136Z,98488.69
2022-10-29T10:48:33.416Z,98486.59
2022-10-29T10:52:36.114Z,98482.31
2022-10-29T10:56:55.645Z,98478.56
2022-10-29T11:01:01.183Z,98474.44
2022-10-29T11:05:20.223Z,98479.88
2022-10-29T11:09:33.531Z,98464.00
2022-10-29T11:13:39.486Z,98452.72
2022-10-29T11:17:44.429Z,98457.69
2022-10-29T11:21:55.508Z,98453.72
2022-10-29T11:26:07.990Z,98455.38
2022-10-29T11:30:12.880Z,98456.13
2022-10-29T11:34:24.104Z,98452.00
2022-10-29T11:38:45.326Z,98453.31
2022-10-29T11:42:47.590Z,98446.44
2022-10-29T11:47:08.042Z,98441.44
2022-10-29T11:51:19.049Z,98437.66
2022-10-29T11:56:01.866Z,98431.09
2022-10-29T12:00:19.228Z,98428.44
2022-10-29T12:04:24.068Z,98432.53
2022-10-29T12:08:58.941Z,98426.19
2022-10-29T12:13:04.005Z,98430.06
2022-10-29T12:17:38.651Z,98426.91
2022-10-29T12:21:50.573Z,98424.28
2022-10-29T12:26:15.412Z,98426.25
2022-10-29T12:30:18.952Z,98414.13
2022-10-29T12:34:34.303Z,98418.38
2022-10-29T12:38:50.432Z,98419.94
2022-10-29T12:42:54.143Z,98412.03
2022-10-29T12:47:17.349Z,98413.22
2022-10-29T12:51:22.836Z,98406.44
2022-10-29T12:55:25.356Z,98409.25
2022-10-29T12:59:27.303Z,98415.66
2022-10-29T13:04:08.497Z,98417.72
2022-10-29T13:08:34.191Z,98417.72
2022-10-29T13:12:54.184Z,98420.13
2022-10-29T13:16:56.897Z,98418.06
2022-10-29T13:20:58.999Z,98414.09
2022-10-29T13:25:36.104Z,98413.13
2022-10-29T13:29:49.052Z,98403.06
2022-10-29T13:33:51.076Z,98395.22
2022-10-29T13:37:54.693Z,98393.63
2022-10-29T13:41:56.798Z,98391.06
2022-10-29T13:46:14.151Z,98387.44
2022-10-29T13:50:18.424Z,98390.97
2022-10-29T13:54:34.208Z,98385.75
2022-10-29T13:58:37.799Z,98380.41
2022-10-29T14:02:42.994Z,98383.06
2022-10-29T14:06:46.401Z,98379.81
2022-10-29T14:10:51.932Z,98380.91
2022-10-29T14:15:02.507Z,98376.53
2022-10-29T14:19:19.156Z,98379.19
2022-10-29T14:23:21.539Z,98359.00
2022-10-29T14:27:23.607Z,98365.50
2022-10-29T14:31:26.240Z,98367.78
2022-10-29T14:35:28.977Z,98370.91
2022-10-29T14:39:48.503Z,98364.69
2022-10-29T14:44:05.662Z,98361.63
2022-10-29T14:48:11.226Z,98369.13
2022-10-29T14:52:19.175Z,98365.00
2022-10-29T14:56:26.385Z,98367.91
2022-10-29T15:00:30.013Z,98373.81
2022-10-29T15:04:32.235Z,98363.00
2022-10-29T15:08:39.021Z,98365.41
2022-10-29T15:12:41.194Z,98364.13
2022-10-29T15:16:47.099Z,98366.41
2022-10-29T15:20:49.296Z,98367.72
2022-10-29T15:24:52.572Z,98367.44
2022-10-29T15:28:56.523Z,98365.41
2022-10-29T15:33:00.560Z,98372.34
2022-10-29T15:37:24.097Z,98357.25
2022-10-29T15:41:37.918Z,98361.34
2022-10-29T15:45:56.711Z,98351.25
2022-10-29T15:49:58.778Z,98360.53
2022-10-29T15:54:02.650Z,98359.25
2022-10-29T15:58:21.590Z,98365.00
2022-10-29T16:02:25.392Z,98352.47
2022-10-29T16:06:27.646Z,98355.44
2022-10-29T16:10:29.914Z,98352.47
2022-10-29T16:14:31.880Z,98362.66
2022-10-29T16:18:33.906Z,98355.44
2022-10-29T16:22:35.936Z,98361.47
2022-10-29T16:26:37.983Z,98349.59
2022-10-29T16:34:47.204Z,98350.72
2022-10-29T16:38:49.307Z,98349.84
2022-10-29T16:42:51.825Z,98354.28
2022-10-29T16:46:53.833Z,98357.63
2022-10-29T16:50:55.860Z,98353.75
2022-10-29T16:54:57.939Z,98347.19
2022-10-29T16:59:01.972Z,98340.56
2022-10-29T17:03:10.111Z,98346.28
2022-10-29T17:07:13.355Z,98349.88
2022-10-29T17:11:15.433Z,98339.28
2022-10-29T17:15:17.813Z,98347.97
2022-10-29T17:19:19.852Z,98346.28
2022-10-29T17:23:21.893Z,98350.09
2022-10-29T17:27:24.060Z,98355.38
2022-10-29T17:31:27.033Z,98352.34
2022-10-29T17:35:29.047Z,98351.28
2022-10-29T17:39:31.063Z,98360.97
2022-10-29T17:43:33.226Z,98358.31
2022-10-29T17:47:35.308Z,98365.88
2022-10-29T17:51:37.438Z,98367.69
2022-10-29T17:55:39.472Z,98371.19
2022-10-29T17:59:41.470Z,98367.66
2022-10-29T18:03:44.009Z,98364.50
2022-10-29T18:07:46.033Z,98372.44
2022-10-29T18:11:50.255Z,98361.88
2022-10-29T18:15:52.314Z,98362.69
2022-10-29T18:19:54.333Z,98359.09
2022-10-29T18:23:56.701Z,98361.69
2022-10-29T18:27:58.760Z,98357.69
2022-10-29T18:32:00.772Z,98365.91
2022-10-29T18:36:02.898Z,98364.44
2022-10-29T18:40:05.380Z,98363.84
2022-10-29T18:44:07.510Z,98361.47
2022-10-29T18:48:09.695Z,98374.56
2022-10-29T18:52:11.806Z,98362.75
2022-10-29T18:56:16.417Z,98361.44
2022-10-29T19:00:18.539Z,98356.75
2022-10-29T19:04:20.616Z,98354.31
2022-10-29T19:08:23.804Z,98348.19
2022-10-29T19:12:25.805Z,98350.56
2022-10-29T19:16:29.149Z,98347.41
2022-10-29T19:20:35.048Z,98344.25
2022-10-29T19:24:37.056Z,98354.31
2022-10-29T19:28:39.953Z,98348.78
2022-10-29T19:32:41.992Z,98335.97
2022-10-29T19:36:44.317Z,98335.97
2022-10-29T19:40:46.321Z,98338.09
2022-10-29T19:44:52.112Z,98331.00
2022-10-29T19:49:00.707Z,98340.53
2022-10-29T19:53:02.884Z,98338.13
2022-10-29T19:57:04.903Z,98331.34
2022-10-29T20:01:11.442Z,98336.88
2022-10-29T20:05:13.613Z,98334.97
2022-10-29T20:09:15.631Z,98334.03
2022-10-29T20:13:17.652Z,98339.34
2022-10-29T20:17:19.766Z,98347.84
2022-10-29T20:21:21.872Z,98340.78
2022-10-29T20:25:24.344Z,98349.00
2022-10-29T20:29:26.419Z,98342.03
2022-10-29T20:33:28.448Z,98339.97
2022-10-29T20:37:30.450Z,98339.59
2022-10-29T20:41:32.626Z,98335.31
2022-10-29T20:45:34.600Z,98339.59
2022-10-29T20:49:36.604Z,98331.91
2022-10-29T20:53:38.758Z,98339.28
2022-10-29T20:57:40.770Z,98335.19
2022-10-29T21:01:43.029Z,98333.84
2022-10-29T21:05:45.185Z,98338.41
2022-10-29T21:09:48.452Z,98351.63
2022-10-29T21:13:51.099Z,98340.00
2022-10-29T21:17:53.197Z,98336.22
2022-10-29T21:21:55.186Z,98335.78
2022-10-29T21:25:57.161Z,98338.03
2022-10-29T21:29:59.197Z,98333.25
2022-10-29T21:34:01.269Z,98332.03
2022-10-29T21:38:03.335Z,98325.38
2022-10-29T21:42:05.432Z,98326.16
2022-10-29T21:46:07.814Z,98328.63
2022-10-29T21:50:10.121Z,98317.66
2022-10-29T21:54:12.132Z,98319.16
2022-10-29T21:58:14.241Z,98317.38
2022-10-29T22:02:16.382Z,98318.09
2022-10-29T22:06:20.772Z,98307.44
2022-10-29T22:10:22.775Z,98314.44
2022-10-29T22:14:24.775Z,98303.84
2022-10-29T22:18:27.228Z,98304.69
2022-10-29T22:22:29.213Z,98303.66
2022-10-29T22:26:31.328Z,98299.13
2022-10-29T22:30:33.356Z,98298.91
2022-10-29T22:34:35.376Z,98297.59
2022-10-29T22:38:37.867Z,98290.22
2022-10-29T22:42:39.873Z,98294.00
2022-10-29T22:46:42.145Z,98290.22
2022-10-29T22:50:44.150Z,98293.44
2022-10-29T22:54:46.146Z,98288.13
2022-10-29T22:58:48.695Z,98288.13
2022-10-29T23:02:50.704Z,98287.47
2022-10-29T23:06:54.073Z,98289.56
2022-10-29T23:10:57.163Z,98288.03
2022-10-29T23:14:59.169Z,98290.97
2022-10-29T23:19:03.245Z,98294.56
2022-10-29T23:23:05.417Z,98301.34
2022-10-29T23:27:07.438Z,98301.34
2022-10-29T23:31:24.485Z,98302.50
2022-10-29T23:35:26.510Z,98307.22
2022-10-29T23:39:28.531Z,98301.38
2022-10-29T23:43:30.640Z,98302.50
2022-10-29T23:47:32.623Z,98301.84
2022-10-29T23:55:42.800Z,98287.19
2022-10-29T23:59:44.841Z,98279.53
